sensor_id;sensor_type;location;lat;lon;timestamp;P1;durP1;ratioP1;P2;durP2;ratioP2
68188;SDS011;66299;47.514;19.218;2024-02-26T00:00:09;38.95;;;20.38;;
68188;SDS011;66299;47.514;19.218;2024-02-26T00:02:39;35.90;;;20.08;;
68188;SDS011;66299;47.514;19.218;2024-02-26T00:05:09;37.00;;;20.05;;
68188;SDS011;66299;47.514;19.218;2024-02-26T00:07:38;34.53;;;19.75;;
68188;SDS011;66299;47.514;19.218;2024-02-26T00:10:09;39.78;;;20.25;;
68188;SDS011;66299;47.514;19.218;2024-02-26T00:12:37;35.72;;;19.92;;
68188;SDS011;66299;47.514;19.218;2024-02-26T00:15:10;34.83;;;19.98;;
68188;SDS011;66299;47.514;19.218;2024-02-26T00:17:39;33.75;;;20.00;;
68188;SDS011;66299;47.514;19.218;2024-02-26T00:20:10;36.78;;;19.95;;
68188;SDS011;66299;47.514;19.218;2024-02-26T00:22:40;34.03;;;18.45;;
68188;SDS011;66299;47.514;19.218;2024-02-26T00:25:09;33.85;;;19.27;;
68188;SDS011;66299;47.514;19.218;2024-02-26T00:27:39;35.03;;;18.85;;
68188;SDS011;66299;47.514;19.218;2024-02-26T00:30:09;33.65;;;18.83;;
68188;SDS011;66299;47.514;19.218;2024-02-26T00:32:39;32.60;;;18.13;;
68188;SDS011;66299;47.514;19.218;2024-02-26T00:35:08;32.45;;;18.52;;
68188;SDS011;66299;47.514;19.218;2024-02-26T00:37:39;33.85;;;19.25;;
68188;SDS011;66299;47.514;19.218;2024-02-26T00:40:10;32.77;;;20.17;;
68188;SDS011;66299;47.514;19.218;2024-02-26T00:42:39;38.58;;;19.33;;
68188;SDS011;66299;47.514;19.218;2024-02-26T00:45:14;32.60;;;19.17;;
68188;SDS011;66299;47.514;19.218;2024-02-26T00:47:43;35.15;;;19.80;;
68188;SDS011;66299;47.514;19.218;2024-02-26T00:50:14;36.90;;;18.48;;
68188;SDS011;66299;47.514;19.218;2024-02-26T00:52:43;33.40;;;17.95;;
68188;SDS011;66299;47.514;19.218;2024-02-26T00:55:13;30.77;;;17.70;;
68188;SDS011;66299;47.514;19.218;2024-02-26T00:57:42;29.35;;;16.67;;
68188;SDS011;66299;47.514;19.218;2024-02-26T01:00:11;31.90;;;17.30;;
68188;SDS011;66299;47.514;19.218;2024-02-26T01:02:44;29.67;;;16.77;;
68188;SDS011;66299;47.514;19.218;2024-02-26T01:05:15;29.75;;;16.42;;
68188;SDS011;66299;47.514;19.218;2024-02-26T01:07:44;34.72;;;16.48;;
68188;SDS011;66299;47.514;19.218;2024-02-26T01:10:13;29.38;;;16.50;;
68188;SDS011;66299;47.514;19.218;2024-02-26T01:12:42;28.08;;;16.55;;
68188;SDS011;66299;47.514;19.218;2024-02-26T01:15:10;28.25;;;16.55;;
68188;SDS011;66299;47.514;19.218;2024-02-26T01:17:41;32.80;;;17.17;;
68188;SDS011;66299;47.514;19.218;2024-02-26T01:20:11;27.67;;;16.63;;
68188;SDS011;66299;47.514;19.218;2024-02-26T01:22:39;30.60;;;16.58;;
68188;SDS011;66299;47.514;19.218;2024-02-26T01:25:10;29.95;;;15.55;;
68188;SDS011;66299;47.514;19.218;2024-02-26T01:27:41;28.88;;;15.98;;
68188;SDS011;66299;47.514;19.218;2024-02-26T01:30:12;29.08;;;15.73;;
68188;SDS011;66299;47.514;19.218;2024-02-26T01:32:45;29.60;;;15.50;;
68188;SDS011;66299;47.514;19.218;2024-02-26T01:35:13;29.27;;;15.38;;
68188;SDS011;66299;47.514;19.218;2024-02-26T01:37:43;27.08;;;14.80;;
68188;SDS011;66299;47.514;19.218;2024-02-26T01:40:12;29.98;;;15.65;;
68188;SDS011;66299;47.514;19.218;2024-02-26T01:42:44;32.47;;;15.68;;
68188;SDS011;66299;47.514;19.218;2024-02-26T01:45:15;30.52;;;15.90;;
68188;SDS011;66299;47.514;19.218;2024-02-26T01:47:51;33.35;;;16.10;;
68188;SDS011;66299;47.514;19.218;2024-02-26T01:50:21;27.42;;;15.23;;
68188;SDS011;66299;47.514;19.218;2024-02-26T01:52:51;31.60;;;16.92;;
68188;SDS011;66299;47.514;19.218;2024-02-26T01:55:23;31.90;;;16.25;;
68188;SDS011;66299;47.514;19.218;2024-02-26T01:57:54;29.35;;;16.27;;
68188;SDS011;66299;47.514;19.218;2024-02-26T02:00:23;27.58;;;16.42;;
68188;SDS011;66299;47.514;19.218;2024-02-26T02:02:55;33.97;;;17.35;;
68188;SDS011;66299;47.514;19.218;2024-02-26T02:05:23;30.13;;;17.25;;
68188;SDS011;66299;47.514;19.218;2024-02-26T02:07:55;31.23;;;17.63;;
68188;SDS011;66299;47.514;19.218;2024-02-26T02:10:25;29.75;;;17.88;;
68188;SDS011;66299;47.514;19.218;2024-02-26T02:12:55;33.42;;;18.20;;
68188;SDS011;66299;47.514;19.218;2024-02-26T02:15:25;31.10;;;17.95;;
68188;SDS011;66299;47.514;19.218;2024-02-26T02:17:58;31.70;;;18.08;;
68188;SDS011;66299;47.514;19.218;2024-02-26T02:20:32;32.70;;;18.30;;
68188;SDS011;66299;47.514;19.218;2024-02-26T02:23:02;31.38;;;17.58;;
68188;SDS011;66299;47.514;19.218;2024-02-26T02:25:31;30.40;;;18.25;;
68188;SDS011;66299;47.514;19.218;2024-02-26T02:30:34;31.60;;;17.42;;
68188;SDS011;66299;47.514;19.218;2024-02-26T02:33:03;32.13;;;17.08;;
68188;SDS011;66299;47.514;19.218;2024-02-26T02:35:33;29.65;;;16.73;;
68188;SDS011;66299;47.514;19.218;2024-02-26T02:38:03;32.13;;;17.63;;
68188;SDS011;66299;47.514;19.218;2024-02-26T02:40:33;27.63;;;15.85;;
68188;SDS011;66299;47.514;19.218;2024-02-26T02:43:03;30.60;;;15.48;;
68188;SDS011;66299;47.514;19.218;2024-02-26T02:45:32;26.85;;;15.48;;
68188;SDS011;66299;47.514;19.218;2024-02-26T02:48:01;27.30;;;14.80;;
68188;SDS011;66299;47.514;19.218;2024-02-26T02:50:33;25.52;;;14.48;;
68188;SDS011;66299;47.514;19.218;2024-02-26T02:53:02;26.23;;;14.60;;
68188;SDS011;66299;47.514;19.218;2024-02-26T02:55:33;27.92;;;14.40;;
68188;SDS011;66299;47.514;19.218;2024-02-26T02:58:02;26.52;;;14.60;;
68188;SDS011;66299;47.514;19.218;2024-02-26T03:00:32;26.63;;;14.80;;
68188;SDS011;66299;47.514;19.218;2024-02-26T03:03:01;25.42;;;14.52;;
68188;SDS011;66299;47.514;19.218;2024-02-26T03:05:31;32.17;;;15.07;;
68188;SDS011;66299;47.514;19.218;2024-02-26T03:08:03;26.70;;;15.18;;
68188;SDS011;66299;47.514;19.218;2024-02-26T03:10:31;28.50;;;15.73;;
68188;SDS011;66299;47.514;19.218;2024-02-26T03:13:00;27.65;;;15.45;;
68188;SDS011;66299;47.514;19.218;2024-02-26T03:15:31;27.33;;;15.57;;
68188;SDS011;66299;47.514;19.218;2024-02-26T03:18:00;25.65;;;14.80;;
68188;SDS011;66299;47.514;19.218;2024-02-26T03:20:30;27.50;;;15.32;;
68188;SDS011;66299;47.514;19.218;2024-02-26T03:23:00;29.73;;;15.82;;
68188;SDS011;66299;47.514;19.218;2024-02-26T03:25:30;26.75;;;15.25;;
68188;SDS011;66299;47.514;19.218;2024-02-26T03:27:58;29.55;;;15.85;;
68188;SDS011;66299;47.514;19.218;2024-02-26T03:30:27;30.55;;;15.85;;
68188;SDS011;66299;47.514;19.218;2024-02-26T03:32:56;27.40;;;14.85;;
68188;SDS011;66299;47.514;19.218;2024-02-26T03:35:27;28.25;;;14.93;;
68188;SDS011;66299;47.514;19.218;2024-02-26T03:37:56;25.85;;;14.80;;
68188;SDS011;66299;47.514;19.218;2024-02-26T03:40:25;27.65;;;15.45;;
68188;SDS011;66299;47.514;19.218;2024-02-26T03:42:54;24.13;;;14.45;;
68188;SDS011;66299;47.514;19.218;2024-02-26T03:45:24;25.52;;;15.20;;
68188;SDS011;66299;47.514;19.218;2024-02-26T03:47:56;27.38;;;15.52;;
68188;SDS011;66299;47.514;19.218;2024-02-26T03:50:26;26.90;;;15.20;;
68188;SDS011;66299;47.514;19.218;2024-02-26T03:52:56;27.25;;;15.20;;
68188;SDS011;66299;47.514;19.218;2024-02-26T03:55:26;37.53;;;15.40;;
68188;SDS011;66299;47.514;19.218;2024-02-26T03:57:56;29.75;;;15.07;;
68188;SDS011;66299;47.514;19.218;2024-02-26T04:00:24;24.08;;;14.13;;
68188;SDS011;66299;47.514;19.218;2024-02-26T04:02:56;27.80;;;15.57;;
68188;SDS011;66299;47.514;19.218;2024-02-26T04:05:25;26.23;;;14.80;;
68188;SDS011;66299;47.514;19.218;2024-02-26T04:07:54;25.98;;;14.68;;
68188;SDS011;66299;47.514;19.218;2024-02-26T04:10:23;26.42;;;15.05;;
68188;SDS011;66299;47.514;19.218;2024-02-26T04:12:55;25.75;;;15.32;;
68188;SDS011;66299;47.514;19.218;2024-02-26T04:15:24;27.85;;;15.50;;
68188;SDS011;66299;47.514;19.218;2024-02-26T04:17:55;28.90;;;15.95;;
68188;SDS011;66299;47.514;19.218;2024-02-26T04:20:24;30.77;;;16.50;;
68188;SDS011;66299;47.514;19.218;2024-02-26T04:22:54;26.65;;;15.88;;
68188;SDS011;66299;47.514;19.218;2024-02-26T04:25:24;28.92;;;15.77;;
68188;SDS011;66299;47.514;19.218;2024-02-26T04:27:53;34.30;;;17.60;;
68188;SDS011;66299;47.514;19.218;2024-02-26T04:30:24;35.35;;;18.40;;
68188;SDS011;66299;47.514;19.218;2024-02-26T04:32:54;39.28;;;18.83;;
68188;SDS011;66299;47.514;19.218;2024-02-26T04:35:23;38.25;;;19.15;;
68188;SDS011;66299;47.514;19.218;2024-02-26T04:37:51;36.55;;;18.13;;
68188;SDS011;66299;47.514;19.218;2024-02-26T04:40:20;35.08;;;17.63;;
68188;SDS011;66299;47.514;19.218;2024-02-26T04:42:48;37.00;;;18.35;;
68188;SDS011;66299;47.514;19.218;2024-02-26T04:45:19;36.80;;;19.70;;
68188;SDS011;66299;47.514;19.218;2024-02-26T04:47:51;41.45;;;19.45;;
68188;SDS011;66299;47.514;19.218;2024-02-26T04:50:19;37.50;;;19.02;;
68188;SDS011;66299;47.514;19.218;2024-02-26T04:52:48;43.45;;;19.35;;
68188;SDS011;66299;47.514;19.218;2024-02-26T04:55:16;42.53;;;19.73;;
68188;SDS011;66299;47.514;19.218;2024-02-26T04:57:45;42.72;;;18.38;;
68188;SDS011;66299;47.514;19.218;2024-02-26T05:00:15;39.00;;;18.83;;
68188;SDS011;66299;47.514;19.218;2024-02-26T05:02:44;39.28;;;18.77;;
68188;SDS011;66299;47.514;19.218;2024-02-26T05:05:20;41.70;;;19.27;;
68188;SDS011;66299;47.514;19.218;2024-02-26T05:10:22;40.30;;;20.08;;
68188;SDS011;66299;47.514;19.218;2024-02-26T05:12:51;40.05;;;19.50;;
68188;SDS011;66299;47.514;19.218;2024-02-26T05:15:22;39.38;;;19.67;;
68188;SDS011;66299;47.514;19.218;2024-02-26T05:17:52;41.20;;;19.23;;
68188;SDS011;66299;47.514;19.218;2024-02-26T05:20:23;42.90;;;20.02;;
68188;SDS011;66299;47.514;19.218;2024-02-26T05:22:52;45.47;;;20.30;;
68188;SDS011;66299;47.514;19.218;2024-02-26T05:25:21;43.42;;;20.40;;
68188;SDS011;66299;47.514;19.218;2024-02-26T05:27:52;44.78;;;21.83;;
68188;SDS011;66299;47.514;19.218;2024-02-26T05:30:22;45.80;;;21.65;;
68188;SDS011;66299;47.514;19.218;2024-02-26T05:32:55;53.05;;;21.58;;
68188;SDS011;66299;47.514;19.218;2024-02-26T05:35:27;46.67;;;20.58;;
68188;SDS011;66299;47.514;19.218;2024-02-26T05:37:55;45.42;;;22.13;;
68188;SDS011;66299;47.514;19.218;2024-02-26T05:40:27;48.27;;;21.87;;
68188;SDS011;66299;47.514;19.218;2024-02-26T05:42:57;46.80;;;21.48;;
68188;SDS011;66299;47.514;19.218;2024-02-26T05:45:26;45.70;;;22.27;;
68188;SDS011;66299;47.514;19.218;2024-02-26T05:47:56;51.33;;;25.15;;
68188;SDS011;66299;47.514;19.218;2024-02-26T05:50:24;44.40;;;21.52;;
68188;SDS011;66299;47.514;19.218;2024-02-26T05:52:56;44.25;;;20.20;;
68188;SDS011;66299;47.514;19.218;2024-02-26T05:55:24;50.72;;;18.27;;
68188;SDS011;66299;47.514;19.218;2024-02-26T05:57:55;41.60;;;18.67;;
68188;SDS011;66299;47.514;19.218;2024-02-26T06:00:25;41.63;;;17.20;;
68188;SDS011;66299;47.514;19.218;2024-02-26T06:02:54;39.10;;;17.50;;
68188;SDS011;66299;47.514;19.218;2024-02-26T06:05:24;39.25;;;18.00;;
68188;SDS011;66299;47.514;19.218;2024-02-26T06:07:55;38.25;;;17.67;;
68188;SDS011;66299;47.514;19.218;2024-02-26T06:10:26;41.50;;;18.67;;
68188;SDS011;66299;47.514;19.218;2024-02-26T06:12:54;41.58;;;18.90;;
68188;SDS011;66299;47.514;19.218;2024-02-26T06:15:22;43.65;;;18.77;;
68188;SDS011;66299;47.514;19.218;2024-02-26T06:17:51;47.10;;;20.70;;
68188;SDS011;66299;47.514;19.218;2024-02-26T06:20:19;46.67;;;22.00;;
68188;SDS011;66299;47.514;19.218;2024-02-26T06:22:49;54.78;;;23.90;;
68188;SDS011;66299;47.514;19.218;2024-02-26T06:25:22;58.35;;;24.95;;
68188;SDS011;66299;47.514;19.218;2024-02-26T06:27:52;53.33;;;24.80;;
68188;SDS011;66299;47.514;19.218;2024-02-26T06:30:22;57.13;;;25.75;;
68188;SDS011;66299;47.514;19.218;2024-02-26T06:32:54;57.88;;;25.77;;
68188;SDS011;66299;47.514;19.218;2024-02-26T06:35:23;68.38;;;27.67;;
68188;SDS011;66299;47.514;19.218;2024-02-26T06:37:51;57.70;;;27.20;;
68188;SDS011;66299;47.514;19.218;2024-02-26T06:40:23;60.33;;;27.00;;
68188;SDS011;66299;47.514;19.218;2024-02-26T06:42:52;56.13;;;27.45;;
68188;SDS011;66299;47.514;19.218;2024-02-26T06:45:21;57.95;;;27.55;;
68188;SDS011;66299;47.514;19.218;2024-02-26T06:47:50;59.03;;;27.92;;
68188;SDS011;66299;47.514;19.218;2024-02-26T06:50:21;60.50;;;27.95;;
68188;SDS011;66299;47.514;19.218;2024-02-26T06:52:56;56.60;;;28.02;;
68188;SDS011;66299;47.514;19.218;2024-02-26T06:55:27;61.40;;;28.15;;
68188;SDS011;66299;47.514;19.218;2024-02-26T06:57:58;52.58;;;26.60;;
68188;SDS011;66299;47.514;19.218;2024-02-26T07:00:26;58.35;;;27.58;;
68188;SDS011;66299;47.514;19.218;2024-02-26T07:02:59;55.42;;;27.85;;
68188;SDS011;66299;47.514;19.218;2024-02-26T07:05:30;53.92;;;27.92;;
68188;SDS011;66299;47.514;19.218;2024-02-26T07:08:00;54.83;;;28.50;;
68188;SDS011;66299;47.514;19.218;2024-02-26T07:10:32;52.53;;;27.08;;
68188;SDS011;66299;47.514;19.218;2024-02-26T07:13:04;51.50;;;27.58;;
68188;SDS011;66299;47.514;19.218;2024-02-26T07:15:33;59.60;;;28.10;;
68188;SDS011;66299;47.514;19.218;2024-02-26T07:18:04;49.03;;;26.90;;
68188;SDS011;66299;47.514;19.218;2024-02-26T07:20:38;53.50;;;28.05;;
68188;SDS011;66299;47.514;19.218;2024-02-26T07:23:08;52.70;;;27.55;;
68188;SDS011;66299;47.514;19.218;2024-02-26T07:25:41;51.42;;;26.98;;
68188;SDS011;66299;47.514;19.218;2024-02-26T07:28:16;54.17;;;28.48;;
68188;SDS011;66299;47.514;19.218;2024-02-26T07:30:46;50.25;;;27.10;;
68188;SDS011;66299;47.514;19.218;2024-02-26T07:33:16;50.53;;;26.85;;
68188;SDS011;66299;47.514;19.218;2024-02-26T07:35:46;51.38;;;26.63;;
68188;SDS011;66299;47.514;19.218;2024-02-26T07:38:15;47.65;;;26.35;;
68188;SDS011;66299;47.514;19.218;2024-02-26T07:40:59;49.90;;;27.52;;
68188;SDS011;66299;47.514;19.218;2024-02-26T07:43:30;46.80;;;26.50;;
68188;SDS011;66299;47.514;19.218;2024-02-26T07:46:01;49.17;;;25.63;;
68188;SDS011;66299;47.514;19.218;2024-02-26T07:48:33;49.10;;;27.63;;
68188;SDS011;66299;47.514;19.218;2024-02-26T07:51:04;45.78;;;25.83;;
68188;SDS011;66299;47.514;19.218;2024-02-26T07:53:34;46.65;;;26.23;;
68188;SDS011;66299;47.514;19.218;2024-02-26T07:56:05;43.13;;;25.35;;
68188;SDS011;66299;47.514;19.218;2024-02-26T07:58:36;44.28;;;25.63;;
68188;SDS011;66299;47.514;19.218;2024-02-26T08:01:07;41.70;;;25.05;;
68188;SDS011;66299;47.514;19.218;2024-02-26T08:03:42;41.70;;;24.48;;
68188;SDS011;66299;47.514;19.218;2024-02-26T08:06:12;39.92;;;23.67;;
68188;SDS011;66299;47.514;19.218;2024-02-26T08:08:44;44.40;;;23.50;;
68188;SDS011;66299;47.514;19.218;2024-02-26T08:11:15;41.08;;;25.20;;
68188;SDS011;66299;47.514;19.218;2024-02-26T08:13:45;38.88;;;24.25;;
68188;SDS011;66299;47.514;19.218;2024-02-26T08:16:16;41.10;;;24.33;;
68188;SDS011;66299;47.514;19.218;2024-02-26T08:18:45;41.33;;;25.05;;
68188;SDS011;66299;47.514;19.218;2024-02-26T08:21:15;38.20;;;23.35;;
68188;SDS011;66299;47.514;19.218;2024-02-26T08:23:45;40.88;;;24.30;;
68188;SDS011;66299;47.514;19.218;2024-02-26T08:26:19;41.10;;;23.52;;
68188;SDS011;66299;47.514;19.218;2024-02-26T08:28:51;40.33;;;25.45;;
68188;SDS011;66299;47.514;19.218;2024-02-26T08:31:24;41.90;;;24.87;;
68188;SDS011;66299;47.514;19.218;2024-02-26T08:33:54;40.50;;;25.98;;
68188;SDS011;66299;47.514;19.218;2024-02-26T08:36:25;40.30;;;25.85;;
68188;SDS011;66299;47.514;19.218;2024-02-26T08:38:53;44.88;;;25.70;;
68188;SDS011;66299;47.514;19.218;2024-02-26T08:41:27;39.83;;;25.02;;
68188;SDS011;66299;47.514;19.218;2024-02-26T08:46:25;46.80;;;29.67;;
68188;SDS011;66299;47.514;19.218;2024-02-26T08:48:56;45.97;;;29.15;;
68188;SDS011;66299;47.514;19.218;2024-02-26T08:51:27;43.03;;;27.60;;
68188;SDS011;66299;47.514;19.218;2024-02-26T08:54:00;43.80;;;27.83;;
68188;SDS011;66299;47.514;19.218;2024-02-26T08:56:30;43.17;;;27.13;;
68188;SDS011;66299;47.514;19.218;2024-02-26T08:59:01;47.30;;;29.02;;
68188;SDS011;66299;47.514;19.218;2024-02-26T09:01:31;47.45;;;29.88;;
68188;SDS011;66299;47.514;19.218;2024-02-26T09:04:03;45.95;;;29.63;;
68188;SDS011;66299;47.514;19.218;2024-02-26T09:06:33;42.30;;;27.55;;
68188;SDS011;66299;47.514;19.218;2024-02-26T09:09:03;47.40;;;28.83;;
68188;SDS011;66299;47.514;19.218;2024-02-26T09:11:36;47.88;;;30.77;;
68188;SDS011;66299;47.514;19.218;2024-02-26T09:14:08;46.60;;;30.98;;
68188;SDS011;66299;47.514;19.218;2024-02-26T09:16:38;50.92;;;31.83;;
68188;SDS011;66299;47.514;19.218;2024-02-26T09:19:10;49.67;;;31.85;;
68188;SDS011;66299;47.514;19.218;2024-02-26T09:21:43;48.22;;;29.55;;
68188;SDS011;66299;47.514;19.218;2024-02-26T09:24:14;48.53;;;29.30;;
68188;SDS011;66299;47.514;19.218;2024-02-26T09:26:45;48.30;;;30.23;;
68188;SDS011;66299;47.514;19.218;2024-02-26T09:29:17;47.30;;;30.38;;
68188;SDS011;66299;47.514;19.218;2024-02-26T09:31:46;44.40;;;28.75;;
68188;SDS011;66299;47.514;19.218;2024-02-26T09:34:18;46.60;;;30.58;;
68188;SDS011;66299;47.514;19.218;2024-02-26T09:36:50;45.53;;;28.38;;
68188;SDS011;66299;47.514;19.218;2024-02-26T09:39:18;46.83;;;30.08;;
68188;SDS011;66299;47.514;19.218;2024-02-26T09:41:53;47.38;;;29.70;;
68188;SDS011;66299;47.514;19.218;2024-02-26T09:44:23;64.32;;;34.45;;
68188;SDS011;66299;47.514;19.218;2024-02-26T09:46:57;48.92;;;30.55;;
68188;SDS011;66299;47.514;19.218;2024-02-26T09:49:28;49.80;;;31.83;;
68188;SDS011;66299;47.514;19.218;2024-02-26T09:51:57;54.95;;;32.40;;
68188;SDS011;66299;47.514;19.218;2024-02-26T09:54:30;53.33;;;31.17;;
68188;SDS011;66299;47.514;19.218;2024-02-26T09:57:03;49.90;;;30.33;;
68188;SDS011;66299;47.514;19.218;2024-02-26T09:59:38;42.58;;;27.90;;
68188;SDS011;66299;47.514;19.218;2024-02-26T10:02:11;42.15;;;28.40;;
68188;SDS011;66299;47.514;19.218;2024-02-26T10:04:43;45.22;;;29.40;;
68188;SDS011;66299;47.514;19.218;2024-02-26T10:07:17;45.15;;;28.92;;
68188;SDS011;66299;47.514;19.218;2024-02-26T10:09:49;46.50;;;29.90;;
68188;SDS011;66299;47.514;19.218;2024-02-26T10:12:21;44.28;;;29.08;;
68188;SDS011;66299;47.514;19.218;2024-02-26T10:14:52;46.78;;;29.63;;
68188;SDS011;66299;47.514;19.218;2024-02-26T10:17:22;42.17;;;28.70;;
68188;SDS011;66299;47.514;19.218;2024-02-26T10:19:54;43.90;;;28.70;;
68188;SDS011;66299;47.514;19.218;2024-02-26T10:22:38;44.65;;;28.65;;
68188;SDS011;66299;47.514;19.218;2024-02-26T10:25:09;40.22;;;27.27;;
68188;SDS011;66299;47.514;19.218;2024-02-26T10:27:41;44.47;;;27.08;;
68188;SDS011;66299;47.514;19.218;2024-02-26T10:30:16;40.63;;;27.45;;
68188;SDS011;66299;47.514;19.218;2024-02-26T10:32:48;44.65;;;27.23;;
68188;SDS011;66299;47.514;19.218;2024-02-26T10:35:19;39.65;;;26.67;;
68188;SDS011;66299;47.514;19.218;2024-02-26T10:37:51;40.95;;;26.52;;
68188;SDS011;66299;47.514;19.218;2024-02-26T10:40:21;35.38;;;23.85;;
68188;SDS011;66299;47.514;19.218;2024-02-26T10:42:51;40.03;;;24.70;;
68188;SDS011;66299;47.514;19.218;2024-02-26T10:45:21;35.33;;;22.85;;
68188;SDS011;66299;47.514;19.218;2024-02-26T10:47:51;34.17;;;23.55;;
68188;SDS011;66299;47.514;19.218;2024-02-26T10:50:23;38.70;;;23.95;;
68188;SDS011;66299;47.514;19.218;2024-02-26T10:53:00;38.15;;;24.58;;
68188;SDS011;66299;47.514;19.218;2024-02-26T10:55:31;36.20;;;24.08;;
68188;SDS011;66299;47.514;19.218;2024-02-26T10:58:06;35.53;;;22.67;;
68188;SDS011;66299;47.514;19.218;2024-02-26T11:00:37;34.40;;;19.88;;
68188;SDS011;66299;47.514;19.218;2024-02-26T11:03:09;35.00;;;21.40;;
68188;SDS011;66299;47.514;19.218;2024-02-26T11:05:40;31.98;;;20.70;;
68188;SDS011;66299;47.514;19.218;2024-02-26T11:08:13;34.90;;;21.15;;
68188;SDS011;66299;47.514;19.218;2024-02-26T11:10:44;29.00;;;17.83;;
68188;SDS011;66299;47.514;19.218;2024-02-26T11:13:26;29.27;;;18.13;;
68188;SDS011;66299;47.514;19.218;2024-02-26T11:16:01;32.45;;;18.60;;
68188;SDS011;66299;47.514;19.218;2024-02-26T11:18:32;34.63;;;20.00;;
68188;SDS011;66299;47.514;19.218;2024-02-26T11:21:05;30.52;;;16.73;;
68188;SDS011;66299;47.514;19.218;2024-02-26T11:23:35;24.63;;;15.68;;
68188;SDS011;66299;47.514;19.218;2024-02-26T11:26:09;25.17;;;15.43;;
68188;SDS011;66299;47.514;19.218;2024-02-26T11:28:41;27.23;;;17.63;;
68188;SDS011;66299;47.514;19.218;2024-02-26T11:31:15;25.55;;;16.35;;
68188;SDS011;66299;47.514;19.218;2024-02-26T11:33:53;26.92;;;16.60;;
68188;SDS011;66299;47.514;19.218;2024-02-26T11:36:25;31.58;;;18.00;;
68188;SDS011;66299;47.514;19.218;2024-02-26T11:38:55;25.63;;;16.42;;
68188;SDS011;66299;47.514;19.218;2024-02-26T11:41:27;23.60;;;15.03;;
68188;SDS011;66299;47.514;19.218;2024-02-26T11:44:00;25.25;;;16.50;;
68188;SDS011;66299;47.514;19.218;2024-02-26T11:46:34;24.88;;;15.27;;
68188;SDS011;66299;47.514;19.218;2024-02-26T11:52:02;29.40;;;18.07;;
68188;SDS011;66299;47.514;19.218;2024-02-26T11:57:27;25.75;;;15.18;;
68188;SDS011;66299;47.514;19.218;2024-02-26T12:00:11;25.98;;;15.95;;
68188;SDS011;66299;47.514;19.218;2024-02-26T12:02:45;26.33;;;14.88;;
68188;SDS011;66299;47.514;19.218;2024-02-26T12:05:15;22.13;;;13.18;;
68188;SDS011;66299;47.514;19.218;2024-02-26T12:07:48;21.70;;;12.38;;
68188;SDS011;66299;47.514;19.218;2024-02-26T12:10:23;20.55;;;12.02;;
68188;SDS011;66299;47.514;19.218;2024-02-26T12:12:58;20.73;;;12.60;;
68188;SDS011;66299;47.514;19.218;2024-02-26T12:15:36;23.77;;;12.30;;
68188;SDS011;66299;47.514;19.218;2024-02-26T12:18:05;23.77;;;12.68;;
68188;SDS011;66299;47.514;19.218;2024-02-26T12:20:37;24.17;;;13.25;;
68188;SDS011;66299;47.514;19.218;2024-02-26T12:23:08;21.83;;;12.23;;
68188;SDS011;66299;47.514;19.218;2024-02-26T12:25:41;21.40;;;11.48;;
68188;SDS011;66299;47.514;19.218;2024-02-26T12:28:15;18.50;;;11.07;;
68188;SDS011;66299;47.514;19.218;2024-02-26T12:30:45;18.15;;;11.68;;
68188;SDS011;66299;47.514;19.218;2024-02-26T12:33:17;17.23;;;10.65;;
68188;SDS011;66299;47.514;19.218;2024-02-26T12:35:48;17.92;;;10.90;;
68188;SDS011;66299;47.514;19.218;2024-02-26T12:38:20;21.63;;;11.77;;
68188;SDS011;66299;47.514;19.218;2024-02-26T12:40:52;18.88;;;10.85;;
68188;SDS011;66299;47.514;19.218;2024-02-26T12:43:22;18.88;;;11.38;;
68188;SDS011;66299;47.514;19.218;2024-02-26T12:45:57;18.25;;;10.77;;
68188;SDS011;66299;47.514;19.218;2024-02-26T12:48:28;18.55;;;10.35;;
68188;SDS011;66299;47.514;19.218;2024-02-26T12:51:00;16.77;;;10.57;;
68188;SDS011;66299;47.514;19.218;2024-02-26T12:53:32;19.98;;;11.40;;
68188;SDS011;66299;47.514;19.218;2024-02-26T12:58:34;15.50;;;9.25;;
68188;SDS011;66299;47.514;19.218;2024-02-26T13:01:07;16.95;;;9.82;;
68188;SDS011;66299;47.514;19.218;2024-02-26T13:03:42;18.65;;;10.10;;
68188;SDS011;66299;47.514;19.218;2024-02-26T13:06:13;19.13;;;9.60;;
68188;SDS011;66299;47.514;19.218;2024-02-26T13:08:43;17.27;;;9.43;;
68188;SDS011;66299;47.514;19.218;2024-02-26T13:11:14;20.92;;;10.02;;
68188;SDS011;66299;47.514;19.218;2024-02-26T13:13:47;17.00;;;10.18;;
68188;SDS011;66299;47.514;19.218;2024-02-26T13:16:17;15.63;;;9.48;;
68188;SDS011;66299;47.514;19.218;2024-02-26T13:18:47;15.48;;;9.80;;
68188;SDS011;66299;47.514;19.218;2024-02-26T13:21:16;18.27;;;9.98;;
68188;SDS011;66299;47.514;19.218;2024-02-26T13:23:51;16.10;;;10.23;;
68188;SDS011;66299;47.514;19.218;2024-02-26T13:26:23;16.67;;;9.75;;
68188;SDS011;66299;47.514;19.218;2024-02-26T13:28:59;19.77;;;10.07;;
68188;SDS011;66299;47.514;19.218;2024-02-26T13:31:29;15.82;;;10.75;;
68188;SDS011;66299;47.514;19.218;2024-02-26T13:34:10;18.85;;;10.48;;
68188;SDS011;66299;47.514;19.218;2024-02-26T13:36:43;15.45;;;10.30;;
68188;SDS011;66299;47.514;19.218;2024-02-26T13:39:22;18.13;;;11.00;;
68188;SDS011;66299;47.514;19.218;2024-02-26T13:41:52;20.42;;;11.57;;
68188;SDS011;66299;47.514;19.218;2024-02-26T13:44:21;17.05;;;11.65;;
68188;SDS011;66299;47.514;19.218;2024-02-26T13:46:55;19.85;;;12.80;;
68188;SDS011;66299;47.514;19.218;2024-02-26T13:49:30;19.55;;;12.65;;
68188;SDS011;66299;47.514;19.218;2024-02-26T13:52:03;20.27;;;12.23;;
68188;SDS011;66299;47.514;19.218;2024-02-26T13:54:36;18.35;;;12.13;;
68188;SDS011;66299;47.514;19.218;2024-02-26T13:57:08;22.00;;;12.80;;
68188;SDS011;66299;47.514;19.218;2024-02-26T13:59:36;20.00;;;13.15;;
68188;SDS011;66299;47.514;19.218;2024-02-26T14:02:11;18.83;;;12.70;;
68188;SDS011;66299;47.514;19.218;2024-02-26T14:04:41;19.67;;;12.52;;
68188;SDS011;66299;47.514;19.218;2024-02-26T14:07:11;22.80;;;13.32;;
68188;SDS011;66299;47.514;19.218;2024-02-26T14:09:41;21.45;;;13.73;;
68188;SDS011;66299;47.514;19.218;2024-02-26T14:12:17;24.77;;;13.73;;
68188;SDS011;66299;47.514;19.218;2024-02-26T14:14:52;22.50;;;13.55;;
68188;SDS011;66299;47.514;19.218;2024-02-26T14:17:25;23.23;;;14.40;;
68188;SDS011;66299;47.514;19.218;2024-02-26T14:19:54;24.00;;;14.63;;
68188;SDS011;66299;47.514;19.218;2024-02-26T14:22:22;26.70;;;15.18;;
68188;SDS011;66299;47.514;19.218;2024-02-26T14:24:53;24.33;;;15.05;;
68188;SDS011;66299;47.514;19.218;2024-02-26T14:27:25;23.55;;;15.15;;
68188;SDS011;66299;47.514;19.218;2024-02-26T14:29:57;24.58;;;15.88;;
68188;SDS011;66299;47.514;19.218;2024-02-26T14:32:27;28.13;;;15.75;;
68188;SDS011;66299;47.514;19.218;2024-02-26T14:35:02;24.58;;;15.30;;
68188;SDS011;66299;47.514;19.218;2024-02-26T14:37:40;24.92;;;15.60;;
68188;SDS011;66299;47.514;19.218;2024-02-26T14:40:16;24.17;;;16.30;;
68188;SDS011;66299;47.514;19.218;2024-02-26T14:42:45;25.93;;;16.33;;
68188;SDS011;66299;47.514;19.218;2024-02-26T14:45:17;25.35;;;16.20;;